Keewatin, MN

6:12 AM CDT on July 13, 2014 (GMT -0500)
Chisholm-hibbing (KHIB) Elev 1352 ft | 47.39 °N, 92.84 °W | Change Station

Current weather conditions updated 19 minutes ago

Partly Cloudy
Partly Cloudy
50 °F
Feels Like 50 °F
N
4
Wind Variable Wind from WSW

Today is forecast to be Much Cooler than yesterday. Showers late tonight.

Today
High -- | Low -- °F
--% Chance of Precip.
Yesterday
High -- | Low -- °F
Precip. -- in
5:29 AM 9:06 PM
Full, 98% visible
Pressure 29.89 in
Visibility 9.0 miles
Clouds Few 10000 ft
Dew Point 47 °F
Humidity 89%
Rainfall 0.00 in
Snow Depth Not available.
UV 0 out of 12
Pollen 3.90 out of 12
Air Quality Not available.
Flu Activity Sporadic
METAR KHIB 131053Z AUTO 25003KT 9SM FEW100 10/08 A2989 RMK AO2 SLP122 T01000083

More Conditions Fewer Conditions

Pressure 29.89 in
Visibility 9.0 miles
Clouds Few 10000 ft
Dew Point 47 °F
Humidity 89%
Rainfall 0.00 in
Snow Depth Not available.
UV 0 out of 12
Pollen 3.90 out of 12
Air Quality Not available.
Flu Activity Sporadic
METAR KHIB 131053Z AUTO 25003KT 9SM FEW100 10/08 A2989 RMK AO2 SLP122 T01000083

More Conditions Fewer Conditions

10-Day Weather Forecast

Almanac

Astronomy

Jul. 13, 2014 Rise Set
Actual Time 5:29 AM CDT 9:06 PM CDT
Civil Twilight 4:50 AM CDT 9:45 PM CDT
Nautical Twilight 3:58 AM CDT 10:37 PM CDT
Astronomical Twilight 2:46 AM CDT 11:48 PM CDT
Moon 9:42 PM CDT 7:10 AM CDT
Length of Visible Light 16h 55m
Length of Day
15h 37m
Tomorrow will be 1m 44s shorter.
Full, 98% of the Moon is Illuminated
Today
Full
Jul 18
Last Quarter
Jul 26
New
Aug 3
First Quarter
Aug 10
Full

Today's Extremes

State Highs State Lows

Community

WunderPhotos

Upload Photos

1,733,154 photos uploaded!

Nearby

Snow Depth

Station Depth Elevation
No new snow has been reported.

Earthquake Activity

City Distance Mag. Time & Date
No recent earthquake activity has been reported nearby.
Minimum magnitude displayed is 2.5.

Coastal Water Temperatures

Place Temperature
No Stations Reporting

Nearby Weather Stations

Station Location Temp. Dew Point Humidity Wind Precip. Elev Updated Type
RAWS HIBBING MN, Hibbing, MN 51 °F 50 °F 95% WNW  at  3 mph 0.00 in / hr 1350 ft 4:07 AM CDT MADIS
Long Lake 59-24, Bigfork, MN 52.2 °F 51 °F 95% NNE  at  0.0 mph 0.00 in / hr 1381 ft 6:12 AM CDT Rapid Fire
Northwest, Grand Rapids, MN 51.1 °F 51 °F 99% North  at  0.0 mph 0.00 in / hr 1289 ft 6:12 AM CDT Rapid Fire
Southwest, Grand Rapids, MN 52.5 °F 52 °F 99% SW  at  1.6 mph 0.00 in / hr 1322 ft 6:11 AM CDT Normal

Show More Stations Show Fewer Stations